Tuxtla Gutierrez, Mexico

9:54 PM CST on February 12, 2016 (GMT -0600)
Francisco Sarabia | | Change Station
CLOSE
Current Station
Airport
Location: Tuxtla Gutierrez,
Elevation: 1516 ft
Nearby Weather Stations

Elev 1516 ft 16.56 °N, 93.03 °W | Updated 13 minutes ago

Clear
Clear
64 °F
Feels Like 64 °F
N
8
Wind Variable Wind from NW

Today
High -- | Low -- °F
--% Chance of Precip.
Yesterday
High -- | Low -- °F
Precip. -- in
Pressure 30.14 in
Visibility 10.0 miles
Clouds Clear
Dew Point 55 °F
Humidity 73%
Rainfall 0.00 in
Snow Depth Not available.
6:39 AM 6:13 PM
Waxing Crescent, 26% visible
METAR MMTG 130341Z 32007KT 10SM SKC 18/13 A3014 RMK HZY ISOLD AC
Pressure 30.14 in
Visibility 10.0 miles
Clouds Clear
Dew Point 55 °F
Humidity 73%
Rainfall 0.00 in
Snow Depth Not available.
6:39 AM 6:13 PM
Waxing Crescent, 26% visible
METAR MMTG 130341Z 32007KT 10SM SKC 18/13 A3014 RMK HZY ISOLD AC

10-Day Weather Forecast

No radar image for this location.
×

Almanac

Astronomy

Feb. 12, 2016 Rise Set
Actual Time
Civil Twilight
Nautical Twilight
Astronomical Twilight
Moon
Length of Visible Light
Length of Day
Tomorrow will be .
, % of the Moon is Illuminated

Today's Extremes

Country Highs Country Lows

Community

WunderPhotos

Upload Photos

1,892,492 photos uploaded!

WunderBlog® & News

Nearby

Air Quality

  Air Quality AQ Index Pollutant
Not available.

Snow Depth

Station Depth Elevation

Earthquake Activity

City Distance Mag. Time & Date
Minimum magnitude displayed is 2.5.

Coastal Water Temperatures

Place Temperature

Stations

Nearby Weather Stations

Station Location Temp. Windchill Dew Point Humidity Wind Precip. Elev Updated Type